createdAt,value
2017-10-18T00:00:21.643Z,0
2017-10-18T00:01:21.537Z,0
2017-10-18T00:02:21.274Z,0
2017-10-18T00:03:21.604Z,0
2017-10-18T00:04:21.145Z,0
2017-10-18T00:05:21.122Z,0
2017-10-18T00:06:20.882Z,0
2017-10-18T00:07:21.112Z,0
2017-10-18T00:08:21.077Z,0
2017-10-18T00:09:21.443Z,0
2017-10-18T00:10:21.053Z,0
2017-10-18T00:11:21.112Z,0
2017-10-18T00:12:21.022Z,0
2017-10-18T00:13:21.063Z,0
2017-10-18T00:14:20.983Z,0
2017-10-18T00:15:20.943Z,0
2017-10-18T00:16:20.909Z,0
2017-10-18T00:17:21.241Z,0
2017-10-18T00:18:20.880Z,0
2017-10-18T00:19:20.979Z,0
2017-10-18T00:20:21.263Z,0
2017-10-18T00:21:21.163Z,0
2017-10-18T00:22:20.821Z,0
2017-10-18T00:23:21.119Z,0
2017-10-18T00:24:20.824Z,0
2017-10-18T00:25:21.081Z,0
2017-10-18T00:26:21.071Z,0
2017-10-18T00:27:20.387Z,0
2017-10-18T00:28:21.031Z,0
2017-10-18T00:29:20.669Z,0
2017-10-18T00:30:21.011Z,0
2017-10-18T00:31:20.316Z,0
2017-10-18T00:32:20.626Z,0
2017-10-18T00:33:21.041Z,0
2017-10-18T00:34:20.919Z,0
2017-10-18T00:35:20.566Z,0
2017-10-18T00:36:20.873Z,0
2017-10-18T00:37:20.531Z,0
2017-10-18T00:38:20.500Z,0
2017-10-18T00:39:20.927Z,0
2017-10-18T00:40:20.829Z,0
2017-10-18T00:41:20.521Z,0
2017-10-18T00:42:20.107Z,0
2017-10-18T00:43:20.486Z,0
2017-10-18T00:44:20.421Z,0
2017-10-18T00:45:20.382Z,0
2017-10-18T00:46:20.366Z,0
2017-10-18T00:47:20.357Z,0
2017-10-18T00:48:20.012Z,0
2017-10-18T00:49:20.731Z,0
2017-10-18T00:50:20.307Z,0
2017-10-18T00:51:20.337Z,0
2017-10-18T00:52:20.248Z,0
2017-10-18T00:53:20.242Z,0
2017-10-18T00:54:19.901Z,0
2017-10-18T00:55:19.884Z,0
2017-10-18T00:56:20.511Z,0
2017-10-18T00:57:20.170Z,0
2017-10-18T00:58:19.826Z,0
2017-10-18T00:59:19.820Z,0
2017-10-18T01:00:20.461Z,0
2017-10-18T01:01:20.093Z,0
2017-10-18T01:02:20.067Z,0
2017-10-18T01:03:19.738Z,0
2017-10-18T01:04:20.027Z,0
2017-10-18T01:05:20.042Z,0
2017-10-18T01:06:19.997Z,0
2017-10-18T01:07:19.987Z,0
2017-10-18T01:08:19.971Z,0
2017-10-18T01:09:20.324Z,0
2017-10-18T01:10:19.924Z,0
2017-10-18T01:11:20.343Z,0
2017-10-18T01:12:20.251Z,0
2017-10-18T01:13:19.984Z,0
2017-10-18T01:14:20.225Z,0
2017-10-18T01:15:19.508Z,0
2017-10-18T01:16:19.489Z,0
2017-10-18T01:17:20.142Z,0
2017-10-18T01:18:20.105Z,0
2017-10-18T01:19:20.126Z,0
2017-10-18T01:20:19.751Z,0
2017-10-18T01:21:20.066Z,0
2017-10-18T01:22:19.091Z,0
2017-10-18T01:23:19.838Z,0
2017-10-18T01:24:19.360Z,0
2017-10-18T01:25:19.660Z,0
2017-10-18T01:26:19.951Z,0
2017-10-18T01:27:19.286Z,0
2017-10-18T01:28:19.610Z,0
2017-10-18T01:29:19.580Z,0
2017-10-18T01:30:19.556Z,0
2017-10-18T01:31:19.328Z,0
2017-10-18T01:32:19.534Z,0
2017-10-18T01:33:19.509Z,0
2017-10-18T01:34:19.490Z,0
2017-10-18T01:35:19.152Z,0
2017-10-18T01:36:19.218Z,0
2017-10-18T01:37:19.481Z,0
2017-10-18T01:38:19.439Z,0
2017-10-18T01:39:19.125Z,0
2017-10-18T01:40:19.704Z,0
2017-10-18T01:41:19.094Z,0
2017-10-18T01:42:19.341Z,0
2017-10-18T01:43:19.440Z,0
2017-10-18T01:44:19.658Z,0
2017-10-18T01:45:19.299Z,0
2017-10-18T01:46:19.279Z,0
2017-10-18T01:47:19.267Z,0
2017-10-18T01:48:19.222Z,0
2017-10-18T01:49:18.887Z,0
2017-10-18T01:50:18.891Z,0
2017-10-18T01:51:19.191Z,0
2017-10-18T01:52:19.528Z,0
2017-10-18T01:53:18.813Z,0
2017-10-18T01:54:19.191Z,0
2017-10-18T01:55:19.125Z,0
2017-10-18T01:56:19.402Z,0
2017-10-18T01:57:19.401Z,0
2017-10-18T01:58:19.398Z,0
2017-10-18T01:59:19.465Z,0
2017-10-18T02:00:19.322Z,0
2017-10-18T02:01:19.309Z,0
2017-10-18T02:02:18.649Z,0
2017-10-18T02:03:19.302Z,0
2017-10-18T02:04:18.927Z,0
2017-10-18T02:05:18.960Z,0
2017-10-18T02:06:19.228Z,0
2017-10-18T02:07:19.262Z,0
2017-10-18T02:08:19.191Z,0
2017-10-18T02:09:18.922Z,0
2017-10-18T02:10:19.152Z,0
2017-10-18T02:11:18.605Z,0
2017-10-18T02:12:19.232Z,0
2017-10-18T02:13:19.133Z,0
2017-10-18T02:14:18.751Z,0
2017-10-18T02:15:18.722Z,0
2017-10-18T02:16:19.054Z,0
2017-10-18T02:17:19.020Z,0
2017-10-18T02:18:18.992Z,0
2017-10-18T02:19:18.340Z,0
2017-10-18T02:20:19.026Z,0
2017-10-18T02:21:18.631Z,0
2017-10-18T02:22:18.592Z,0
2017-10-18T02:23:18.572Z,0
2017-10-18T02:24:18.990Z,0
2017-10-18T02:25:18.552Z,0
2017-10-18T02:26:18.853Z,0
2017-10-18T02:27:18.180Z,0
2017-10-18T02:28:18.158Z,0
2017-10-18T02:29:18.783Z,0
2017-10-18T02:30:18.467Z,0
2017-10-18T02:31:18.441Z,0
2017-10-18T02:32:17.775Z,0
2017-10-18T02:33:18.734Z,0
2017-10-18T02:34:18.702Z,0
2017-10-18T02:35:18.681Z,0
2017-10-18T02:36:18.351Z,0
2017-10-18T02:37:18.662Z,0
2017-10-18T02:38:18.643Z,0
2017-10-18T02:39:18.611Z,0
2017-10-18T02:40:18.644Z,0
2017-10-18T02:41:17.928Z,0
2017-10-18T02:42:18.229Z,0
2017-10-18T02:43:18.598Z,0
2017-10-18T02:44:17.879Z,0
2017-10-18T02:45:18.514Z,0
2017-10-18T02:46:17.839Z,0
2017-10-18T02:47:18.186Z,0
2017-10-18T02:48:18.134Z,0
2017-10-18T02:49:17.448Z,0
2017-10-18T02:50:18.090Z,0
2017-10-18T02:51:18.071Z,0
2017-10-18T02:52:18.069Z,0
2017-10-18T02:53:18.030Z,0
2017-10-18T02:54:18.022Z,0
2017-10-18T02:55:17.684Z,0
2017-10-18T02:56:17.981Z,0
2017-10-18T02:57:17.639Z,0
2017-10-18T02:58:17.624Z,0
2017-10-18T02:59:18.243Z,0
2017-10-18T03:00:17.902Z,0
2017-10-18T03:01:18.200Z,0
2017-10-18T03:02:18.190Z,0
2017-10-18T03:03:18.211Z,0
2017-10-18T03:04:18.169Z,0
2017-10-18T03:05:17.805Z,0
2017-10-18T03:06:17.789Z,0
2017-10-18T03:07:18.110Z,0
2017-10-18T03:08:17.761Z,0
2017-10-18T03:09:17.731Z,0
2017-10-18T03:10:17.710Z,0
2017-10-18T03:11:17.371Z,0
2017-10-18T03:12:17.667Z,0
2017-10-18T03:13:17.377Z,0
2017-10-18T03:14:17.972Z,0
2017-10-18T03:15:17.301Z,0
2017-10-18T03:16:17.597Z,0
2017-10-18T03:17:17.571Z,0
2017-10-18T03:18:17.569Z,0
2017-10-18T03:19:17.324Z,0
2017-10-18T03:20:17.929Z,0
2017-10-18T03:21:17.193Z,0
2017-10-18T03:22:17.872Z,0
2017-10-18T03:23:18.042Z,0
2017-10-18T03:24:17.135Z,0
2017-10-18T03:25:17.790Z,0
2017-10-18T03:26:17.413Z,0
2017-10-18T03:27:17.728Z,0
2017-10-18T03:28:17.391Z,0
2017-10-18T03:29:17.360Z,0
2017-10-18T03:30:17.700Z,0
2017-10-18T03:31:16.681Z,0
2017-10-18T03:32:16.984Z,0
2017-10-18T03:33:17.306Z,0
2017-10-18T03:34:17.026Z,0
2017-10-18T03:35:16.927Z,0
2017-10-18T03:36:17.584Z,0
2017-10-18T03:37:17.542Z,0
2017-10-18T03:38:17.221Z,0
2017-10-18T03:39:17.490Z,0
2017-10-18T03:40:17.162Z,0
2017-10-18T03:41:17.152Z,0
2017-10-18T03:42:17.477Z,0
2017-10-18T03:43:17.093Z,0
2017-10-18T03:44:16.780Z,0
2017-10-18T03:45:17.413Z,0
2017-10-18T03:46:16.733Z,0
2017-10-18T03:47:16.764Z,0
2017-10-18T03:48:17.011Z,0
2017-10-18T03:49:16.667Z,0
2017-10-18T03:50:16.981Z,0
2017-10-18T03:51:17.306Z,0
2017-10-18T03:52:16.946Z,0
2017-10-18T03:53:16.650Z,0
2017-10-18T03:54:16.901Z,0
2017-10-18T03:55:16.886Z,0
2017-10-18T03:56:16.862Z,0
2017-10-18T03:57:16.848Z,0
2017-10-18T03:58:16.835Z,0
2017-10-18T03:59:16.818Z,0
2017-10-18T04:00:16.790Z,0
2017-10-18T04:01:16.789Z,0
2017-10-18T04:02:16.768Z,0
2017-10-18T04:03:16.749Z,0
2017-10-18T04:04:16.718Z,0
2017-10-18T04:05:17.031Z,0
2017-10-18T04:06:16.682Z,0
2017-10-18T04:07:16.702Z,0
2017-10-18T04:08:16.653Z,0
2017-10-18T04:09:16.951Z,0
2017-10-18T04:10:16.928Z,0
2017-10-18T04:11:16.589Z,0
2017-10-18T04:12:16.912Z,0
2017-10-18T04:13:16.874Z,0
2017-10-18T04:14:16.541Z,0
2017-10-18T04:15:16.544Z,0
2017-10-18T04:16:16.862Z,0
2017-10-18T04:17:16.824Z,0
2017-10-18T04:18:16.808Z,0
2017-10-18T04:19:16.443Z,0
2017-10-18T04:20:16.774Z,0
2017-10-18T04:21:16.100Z,0
2017-10-18T04:22:16.409Z,0
2017-10-18T04:23:16.703Z,0
2017-10-18T04:24:16.685Z,0
2017-10-18T04:25:16.016Z,0
2017-10-18T04:26:16.333Z,0
2017-10-18T04:27:16.321Z,0
2017-10-18T04:28:16.300Z,0
2017-10-18T04:29:16.270Z,0
2017-10-18T04:30:16.573Z,0
2017-10-18T04:31:16.551Z,0
2017-10-18T04:32:16.212Z,0
2017-10-18T04:33:16.228Z,0
2017-10-18T04:34:15.852Z,0
2017-10-18T04:35:16.470Z,0
2017-10-18T04:36:16.141Z,0
2017-10-18T04:37:16.431Z,0
2017-10-18T04:38:16.452Z,0
2017-10-18T04:39:16.090Z,0
2017-10-18T04:40:16.071Z,0
2017-10-18T04:41:16.371Z,0
2017-10-18T04:42:16.359Z,0
2017-10-18T04:43:16.335Z,0
2017-10-18T04:44:16.334Z,0
2017-10-18T04:45:16.299Z,0
2017-10-18T04:46:16.276Z,0
2017-10-18T04:47:16.250Z,0
2017-10-18T04:48:16.242Z,0
2017-10-18T04:49:15.930Z,0
2017-10-18T04:50:16.222Z,0
2017-10-18T04:51:16.194Z,0
2017-10-18T04:52:15.531Z,0
2017-10-18T04:53:15.493Z,0
2017-10-18T04:54:15.811Z,0
2017-10-18T04:55:15.779Z,0
2017-10-18T04:56:15.773Z,0
2017-10-18T04:57:16.093Z,0
2017-10-18T04:58:16.072Z,0
2017-10-18T04:59:16.030Z,0
2017-10-18T05:00:16.061Z,0
2017-10-18T05:01:15.359Z,0
2017-10-18T05:02:15.649Z,0
2017-10-18T05:03:15.650Z,0
2017-10-18T05:04:15.629Z,0
2017-10-18T05:05:15.614Z,0
2017-10-18T05:06:15.684Z,0
2017-10-18T05:07:15.722Z,0
2017-10-18T05:08:15.034Z,0
2017-10-18T05:09:15.534Z,0
2017-10-18T05:10:15.857Z,0
2017-10-18T05:11:15.821Z,0
2017-10-18T05:12:15.284Z,0
2017-10-18T05:13:15.146Z,0
2017-10-18T05:14:15.230Z,0
2017-10-18T05:15:14.779Z,0
2017-10-18T05:16:15.089Z,0
2017-10-18T05:17:15.424Z,0
2017-10-18T05:18:15.432Z,0
2017-10-18T05:19:15.353Z,0
2017-10-18T05:20:15.659Z,0
2017-10-18T05:21:15.437Z,0
2017-10-18T05:22:15.302Z,0
2017-10-18T05:23:14.974Z,0
2017-10-18T05:24:14.937Z,0
2017-10-18T05:25:15.241Z,0
2017-10-18T05:26:15.241Z,0
2017-10-18T05:27:15.243Z,0
2017-10-18T05:28:15.197Z,0
2017-10-18T05:29:15.514Z,4
2017-10-18T05:30:15.472Z,4
2017-10-18T05:31:15.150Z,4
2017-10-18T05:32:15.107Z,0
2017-10-18T05:33:15.421Z,0
2017-10-18T05:34:15.089Z,0
2017-10-18T05:35:14.753Z,0
2017-10-18T05:36:15.364Z,4
2017-10-18T05:37:14.713Z,4
2017-10-18T05:38:15.123Z,4
2017-10-18T05:39:14.768Z,0
2017-10-18T05:40:15.290Z,4
2017-10-18T05:41:15.260Z,4
2017-10-18T05:42:14.980Z,4
2017-10-18T05:43:14.635Z,4
2017-10-18T05:44:15.224Z,8
2017-10-18T05:45:14.651Z,8
2017-10-18T05:46:15.180Z,12
2017-10-18T05:47:14.856Z,16
2017-10-18T05:48:14.810Z,20
2017-10-18T05:49:14.824Z,20
2017-10-18T05:50:14.790Z,24
2017-10-18T05:51:15.095Z,28
2017-10-18T05:52:15.071Z,32
2017-10-18T05:53:14.404Z,36
2017-10-18T05:54:14.701Z,40
2017-10-18T05:55:15.040Z,44
2017-10-18T05:56:14.352Z,56
2017-10-18T05:57:14.339Z,60
2017-10-18T05:58:14.313Z,64
2017-10-18T05:59:14.620Z,72
2017-10-18T06:00:14.282Z,76
2017-10-18T06:01:14.907Z,84
2017-10-18T06:02:14.577Z,84
2017-10-18T06:03:14.573Z,84
2017-10-18T06:04:14.862Z,88
2017-10-18T06:05:14.533Z,96
2017-10-18T06:06:14.169Z,100
2017-10-18T06:07:14.476Z,108
2017-10-18T06:08:14.811Z,116
2017-10-18T06:09:14.441Z,120
2017-10-18T06:10:13.790Z,128
2017-10-18T06:11:14.402Z,144
2017-10-18T06:12:14.412Z,164
2017-10-18T06:13:14.371Z,180
2017-10-18T06:14:14.344Z,192
2017-10-18T06:15:14.334Z,200
2017-10-18T06:16:14.312Z,212
2017-10-18T06:17:14.282Z,236
2017-10-18T06:18:14.592Z,248
2017-10-18T06:19:14.281Z,260
2017-10-18T06:20:14.567Z,268
2017-10-18T06:21:14.544Z,284
2017-10-18T06:22:14.522Z,276
2017-10-18T06:23:14.171Z,268
2017-10-18T06:24:13.892Z,284
2017-10-18T06:25:14.482Z,296
2017-10-18T06:26:14.463Z,316
2017-10-18T06:27:13.772Z,324
2017-10-18T06:28:14.411Z,328
2017-10-18T06:29:14.153Z,328
2017-10-18T06:30:13.720Z,344
2017-10-18T06:31:14.382Z,360
2017-10-18T06:32:14.366Z,384
2017-10-18T06:33:14.009Z,392
2017-10-18T06:34:14.314Z,416
2017-10-18T06:35:13.950Z,440
2017-10-18T06:36:13.940Z,484
2017-10-18T06:37:14.272Z,548
2017-10-18T06:38:13.891Z,608
2017-10-18T06:39:13.980Z,680
2017-10-18T06:40:13.557Z,776
2017-10-18T06:41:14.179Z,904
2017-10-18T06:42:13.511Z,980
2017-10-18T06:43:13.556Z,1008
2017-10-18T06:44:13.142Z,1040
2017-10-18T06:45:14.103Z,988
2017-10-18T06:46:13.751Z,1076
2017-10-18T06:47:13.826Z,1160
2017-10-18T06:48:14.042Z,1208
2017-10-18T06:49:14.021Z,1256
2017-10-18T06:50:13.680Z,1216
2017-10-18T06:51:13.993Z,1264
2017-10-18T06:52:13.976Z,1212
2017-10-18T06:53:13.949Z,1204
2017-10-18T06:54:13.929Z,1196
2017-10-18T06:55:13.903Z,1308
2017-10-18T06:56:13.891Z,1212
2017-10-18T06:57:13.897Z,1200
2017-10-18T06:58:13.223Z,1264
2017-10-18T06:59:13.170Z,1200
2017-10-18T07:00:13.810Z,1320
2017-10-18T07:01:13.789Z,1380
2017-10-18T07:02:13.530Z,1412
2017-10-18T07:03:13.520Z,1500
2017-10-18T07:04:13.710Z,1828
2017-10-18T07:05:13.490Z,1880
2017-10-18T07:06:13.430Z,1784
2017-10-18T07:07:13.450Z,1992
2017-10-18T07:08:13.663Z,1800
2017-10-18T07:09:12.982Z,1924
2017-10-18T07:10:13.324Z,1812
2017-10-18T07:11:13.278Z,1860
2017-10-18T07:12:12.945Z,1796
2017-10-18T07:13:12.581Z,1988
2017-10-18T07:14:13.217Z,1816
2017-10-18T07:15:12.890Z,1868
2017-10-18T07:16:13.232Z,1976
2017-10-18T07:17:13.151Z,2016
2017-10-18T07:18:13.481Z,1904
2017-10-18T07:19:13.105Z,2012
2017-10-18T07:20:13.421Z,1960
2017-10-18T07:21:12.746Z,2020
2017-10-18T07:22:13.383Z,1880
2017-10-18T07:23:13.054Z,1872
2017-10-18T07:24:13.353Z,1880
2017-10-18T07:25:13.349Z,2088
2017-10-18T07:26:13.311Z,1928
2017-10-18T07:27:13.319Z,2028
2017-10-18T07:28:12.623Z,1936
2017-10-18T07:29:13.274Z,1664
2017-10-18T07:30:12.940Z,1664
2017-10-18T07:31:13.211Z,1928
2017-10-18T07:32:13.191Z,1888
2017-10-18T07:33:12.533Z,1932
2017-10-18T07:34:13.161Z,1952
2017-10-18T07:35:13.153Z,2328
2017-10-18T07:36:12.469Z,1932
2017-10-18T07:37:13.081Z,1940
2017-10-18T07:38:12.770Z,2204
2017-10-18T07:39:12.731Z,2140
2017-10-18T07:40:13.066Z,2024
2017-10-18T07:41:13.034Z,2052
2017-10-18T07:42:12.689Z,1964
2017-10-18T07:43:13.042Z,2176
2017-10-18T07:44:12.985Z,1800
2017-10-18T07:45:12.951Z,2152
2017-10-18T07:46:12.932Z,2048
2017-10-18T07:47:12.921Z,2060
2017-10-18T07:48:12.882Z,2324
2017-10-18T07:49:12.555Z,2060
2017-10-18T07:50:12.571Z,2008
2017-10-18T07:51:12.521Z,1940
2017-10-18T07:52:12.831Z,2092
2017-10-18T07:53:12.469Z,1892
2017-10-18T07:54:12.139Z,2068
2017-10-18T07:55:12.760Z,2056
2017-10-18T07:56:12.740Z,1948
2017-10-18T07:57:12.392Z,2188
2017-10-18T07:58:12.531Z,2280
2017-10-18T07:59:12.679Z,2204
2017-10-18T08:00:12.406Z,2080
2017-10-18T08:01:12.652Z,2764
2017-10-18T08:02:12.629Z,2588
2017-10-18T08:03:12.297Z,2864
2017-10-18T08:04:12.583Z,2944
2017-10-18T08:05:12.258Z,3320
2017-10-18T08:06:12.244Z,3120
2017-10-18T08:07:11.908Z,3100
2017-10-18T08:08:12.525Z,3108
2017-10-18T08:09:12.498Z,2964
2017-10-18T08:10:12.489Z,2752
2017-10-18T08:11:12.460Z,3032
2017-10-18T08:12:12.432Z,3088
2017-10-18T08:13:12.107Z,2864
2017-10-18T08:14:12.421Z,2744
2017-10-18T08:15:12.086Z,2776
2017-10-18T08:16:12.076Z,2768
2017-10-18T08:17:12.052Z,2988
2017-10-18T08:18:12.032Z,3012
2017-10-18T08:19:12.003Z,3100
2017-10-18T08:20:12.026Z,2812
2017-10-18T08:21:12.293Z,2932
2017-10-18T08:22:12.261Z,3132
2017-10-18T08:23:12.249Z,2972
2017-10-18T08:24:12.469Z,2528
2017-10-18T08:25:11.896Z,2744
2017-10-18T08:26:12.243Z,2792
2017-10-18T08:27:12.188Z,2552
2017-10-18T08:28:12.213Z,2776
2017-10-18T08:29:12.212Z,3004
2017-10-18T08:30:12.150Z,2908
2017-10-18T08:31:12.118Z,3012
2017-10-18T08:32:12.191Z,2836
2017-10-18T08:33:12.112Z,3292
2017-10-18T08:34:12.165Z,2800
2017-10-18T08:35:11.411Z,3216
2017-10-18T08:36:12.023Z,3392
2017-10-18T08:37:12.029Z,3312
2017-10-18T08:38:12.020Z,3896
2017-10-18T08:39:11.974Z,4296
2017-10-18T08:40:12.057Z,3228
2017-10-18T08:41:12.043Z,3368
2017-10-18T08:42:11.921Z,3164
2017-10-18T08:43:11.647Z,2864
2017-10-18T08:44:11.875Z,3156
2017-10-18T08:45:11.875Z,3104
2017-10-18T08:46:11.833Z,3416
2017-10-18T08:47:11.494Z,2984
2017-10-18T08:48:11.564Z,3564
2017-10-18T08:49:12.394Z,3276
2017-10-18T08:50:11.804Z,3664
2017-10-18T08:51:11.767Z,4000
2017-10-18T08:52:11.445Z,3556
2017-10-18T08:53:11.830Z,3624
2017-10-18T08:54:11.365Z,3416
2017-10-18T08:55:11.694Z,3592
2017-10-18T08:56:11.342Z,3240
2017-10-18T08:57:11.648Z,3196
2017-10-18T08:58:11.624Z,3452
2017-10-18T08:59:11.297Z,3156
2017-10-18T09:00:12.649Z,3172
2017-10-18T09:01:10.900Z,3104
2017-10-18T09:02:11.625Z,3144
2017-10-18T09:03:11.545Z,3144
2017-10-18T09:04:11.212Z,2876
2017-10-18T09:05:11.173Z,3080
2017-10-18T09:06:11.172Z,2956
2017-10-18T09:07:11.461Z,3192
2017-10-18T09:08:11.484Z,3148
2017-10-18T09:09:11.440Z,3128
2017-10-18T09:10:11.491Z,3044
2017-10-18T09:11:10.752Z,3380
2017-10-18T09:12:11.464Z,3404
2017-10-18T09:13:11.043Z,3076
2017-10-18T09:14:10.681Z,3424
2017-10-18T09:15:10.992Z,3300
2017-10-18T09:16:11.302Z,3328
2017-10-18T09:17:10.961Z,3664
2017-10-18T09:18:11.281Z,3880
2017-10-18T09:19:10.928Z,3852
2017-10-18T09:20:10.924Z,4100
2017-10-18T09:21:11.222Z,3828
2017-10-18T09:22:10.871Z,3536
2017-10-18T09:23:10.850Z,3708
2017-10-18T09:24:10.875Z,3712
2017-10-18T09:25:10.502Z,3872
2017-10-18T09:26:11.144Z,3768
2017-10-18T09:27:10.505Z,3496
2017-10-18T09:28:10.809Z,3744
2017-10-18T09:29:11.115Z,3856
2017-10-18T09:30:10.742Z,3508
2017-10-18T09:31:11.157Z,3524
2017-10-18T09:32:11.110Z,3688
2017-10-18T09:33:10.675Z,3992
2017-10-18T09:34:10.671Z,4052
2017-10-18T09:35:11.002Z,4340
2017-10-18T09:36:10.953Z,4304
2017-10-18T09:37:10.612Z,3708
2017-10-18T09:38:11.002Z,3300
2017-10-18T09:39:10.241Z,3168
2017-10-18T09:40:09.964Z,3240
2017-10-18T09:41:10.583Z,3148
2017-10-18T09:42:10.545Z,2828
2017-10-18T09:43:10.256Z,3048
2017-10-18T09:44:10.815Z,3472
2017-10-18T09:45:10.837Z,3852
2017-10-18T09:46:10.570Z,4316
2017-10-18T09:47:10.844Z,4388
2017-10-18T09:48:10.830Z,6084
2017-10-18T09:49:10.172Z,7320
2017-10-18T09:50:10.473Z,6236
2017-10-18T09:51:10.095Z,5912
2017-10-18T09:52:10.770Z,4928
2017-10-18T09:53:10.421Z,4172
2017-10-18T09:54:10.664Z,4332
2017-10-18T09:55:10.134Z,5144
2017-10-18T09:56:10.668Z,5736
2017-10-18T09:57:10.622Z,5852
2017-10-18T09:58:10.664Z,6792
2017-10-18T09:59:09.911Z,7984
2017-10-18T10:00:09.948Z,7532
2017-10-18T10:01:10.535Z,7560
2017-10-18T10:02:10.549Z,8112
2017-10-18T10:03:10.527Z,7384
2017-10-18T10:04:10.501Z,6652
2017-10-18T10:05:10.535Z,5928
2017-10-18T10:06:10.231Z,6680
2017-10-18T10:07:09.785Z,7476
2017-10-18T10:08:10.101Z,8104
2017-10-18T10:09:09.760Z,7792
2017-10-18T10:10:10.396Z,6216
2017-10-18T10:11:10.381Z,5200
2017-10-18T10:12:10.040Z,5328
2017-10-18T10:13:10.439Z,5868
2017-10-18T10:14:10.007Z,5772
2017-10-18T10:15:09.983Z,6104
2017-10-18T10:16:10.292Z,7056
2017-10-18T10:17:10.284Z,8828
2017-10-18T10:18:10.364Z,12820
2017-10-18T10:19:10.257Z,24160
2017-10-18T10:20:10.212Z,22528
2017-10-18T10:21:09.651Z,18912
2017-10-18T10:22:09.880Z,21536
2017-10-18T10:23:09.864Z,21472
2017-10-18T10:24:09.899Z,25760
2017-10-18T10:25:09.834Z,26816
2017-10-18T10:26:09.803Z,19744
2017-10-18T10:27:09.852Z,14528
2017-10-18T10:28:09.783Z,15456
2017-10-18T10:29:09.780Z,17056
2017-10-18T10:30:09.751Z,17888
2017-10-18T10:31:09.733Z,19776
2017-10-18T10:32:09.732Z,18272
2017-10-18T10:33:10.040Z,10072
2017-10-18T10:34:10.041Z,9432
2017-10-18T10:35:09.680Z,9672
2017-10-18T10:36:09.687Z,9760
2017-10-18T10:37:09.689Z,10692
2017-10-18T10:38:09.982Z,11840
2017-10-18T10:39:09.797Z,11828
2017-10-18T10:40:09.646Z,12076
2017-10-18T10:41:09.942Z,12736
2017-10-18T10:42:09.623Z,13024
2017-10-18T10:43:09.930Z,14752
2017-10-18T10:44:09.271Z,18880
2017-10-18T10:45:09.916Z,19808
2017-10-18T10:46:09.648Z,19968
2017-10-18T10:47:09.646Z,21440
2017-10-18T10:48:09.900Z,20256
2017-10-18T10:49:09.875Z,20256
2017-10-18T10:50:09.888Z,20736
2017-10-18T10:51:09.881Z,22176
2017-10-18T10:52:09.515Z,22112
2017-10-18T10:53:09.552Z,23104
2017-10-18T10:54:09.515Z,21184
2017-10-18T10:55:09.836Z,20224
2017-10-18T10:56:09.492Z,20704
2017-10-18T10:57:09.920Z,20800
2017-10-18T10:58:09.800Z,20832
2017-10-18T10:59:09.831Z,20000
2017-10-18T11:00:09.758Z,19520
2017-10-18T11:01:09.843Z,18720
2017-10-18T11:02:09.761Z,20288
2017-10-18T11:03:09.739Z,19200
2017-10-18T11:04:09.732Z,18624
2017-10-18T11:05:09.709Z,18336
2017-10-18T11:06:09.387Z,18144
2017-10-18T11:07:09.835Z,17920
2017-10-18T11:08:09.363Z,16480
2017-10-18T11:09:09.726Z,17088
2017-10-18T11:10:09.726Z,16768
2017-10-18T11:11:09.659Z,16992
2017-10-18T11:12:09.773Z,15840
2017-10-18T11:13:09.635Z,16224
2017-10-18T11:14:09.328Z,15904
2017-10-18T11:15:09.706Z,15648
2017-10-18T11:16:09.599Z,15968
2017-10-18T11:17:08.948Z,15168
2017-10-18T11:18:09.830Z,15104
2017-10-18T11:19:09.605Z,14592
2017-10-18T11:20:09.634Z,14112
2017-10-18T11:21:09.245Z,14272
2017-10-18T11:22:09.577Z,13984
2017-10-18T11:23:09.556Z,13440
2017-10-18T11:24:09.561Z,13728
2017-10-18T11:25:09.225Z,13376
2017-10-18T11:26:09.530Z,13280
2017-10-18T11:27:09.202Z,13504
2017-10-18T11:28:09.494Z,13024
2017-10-18T11:29:09.162Z,12832
2017-10-18T11:30:09.495Z,12768
2017-10-18T11:31:09.134Z,12768
2017-10-18T11:32:09.161Z,13440
2017-10-18T11:33:09.459Z,13984
2017-10-18T11:34:09.449Z,14752
2017-10-18T11:35:09.123Z,15936
2017-10-18T11:36:09.448Z,14784
2017-10-18T11:37:09.448Z,11580
2017-10-18T11:38:09.399Z,6300
2017-10-18T11:39:09.068Z,4036
2017-10-18T11:40:09.065Z,4080
2017-10-18T11:41:09.383Z,4444
2017-10-18T11:42:09.052Z,6084
2017-10-18T11:43:09.041Z,13120
2017-10-18T11:44:09.042Z,18752
2017-10-18T11:45:09.353Z,18400
2017-10-18T11:46:09.373Z,18912
2017-10-18T11:47:08.660Z,19104
2017-10-18T11:48:09.009Z,18912
2017-10-18T11:49:09.331Z,18400
2017-10-18T11:50:09.071Z,18432
2017-10-18T11:51:08.649Z,19424
2017-10-18T11:52:09.357Z,18976
2017-10-18T11:53:08.627Z,18752
2017-10-18T11:54:09.260Z,17824
2017-10-18T11:55:09.231Z,18080
2017-10-18T11:56:08.982Z,17664
2017-10-18T11:57:09.232Z,17824
2017-10-18T11:58:08.968Z,19328
2017-10-18T11:59:09.201Z,17920
2017-10-18T12:00:09.273Z,18048
2017-10-18T12:01:09.201Z,19648
2017-10-18T12:02:09.182Z,19648
2017-10-18T12:03:09.191Z,17568
2017-10-18T12:04:09.190Z,17920
2017-10-18T12:05:08.839Z,20416
2017-10-18T12:06:09.171Z,20512
2017-10-18T12:07:09.140Z,18848
2017-10-18T12:08:09.159Z,18112
2017-10-18T12:09:09.119Z,17440
2017-10-18T12:10:09.130Z,16512
2017-10-18T12:11:09.160Z,16096
2017-10-18T12:12:08.774Z,17120
2017-10-18T12:13:09.176Z,16736
2017-10-18T12:14:09.090Z,16512
2017-10-18T12:15:09.081Z,17696
2017-10-18T12:16:08.911Z,17312
2017-10-18T12:17:08.740Z,16800
2017-10-18T12:18:09.006Z,16800
2017-10-18T12:19:09.049Z,17312
2017-10-18T12:20:08.697Z,16448
2017-10-18T12:21:08.725Z,16416
2017-10-18T12:22:09.032Z,17056
2017-10-18T12:23:09.041Z,16288
2017-10-18T12:24:08.357Z,15584
2017-10-18T12:25:08.975Z,15168
2017-10-18T12:26:09.012Z,15136
2017-10-18T12:27:08.956Z,15808
2017-10-18T12:28:08.712Z,16032
2017-10-18T12:29:08.696Z,15488
2017-10-18T12:30:08.630Z,14912
2017-10-18T12:31:08.931Z,15936
2017-10-18T12:32:08.953Z,15552
2017-10-18T12:33:08.304Z,14176
2017-10-18T12:34:08.586Z,13920
2017-10-18T12:35:08.981Z,13472
2017-10-18T12:36:08.869Z,13632
2017-10-18T12:37:08.702Z,13472
2017-10-18T12:38:08.925Z,13888
2017-10-18T12:39:08.247Z,13984
2017-10-18T12:40:08.867Z,14176
2017-10-18T12:41:08.930Z,13216
2017-10-18T12:42:08.859Z,12960
2017-10-18T12:43:08.561Z,12560
2017-10-18T12:44:08.495Z,12820
2017-10-18T12:45:08.880Z,12800
2017-10-18T12:46:08.803Z,12496
2017-10-18T12:47:08.556Z,12428
2017-10-18T12:48:08.493Z,12604
2017-10-18T12:49:08.801Z,12972
2017-10-18T12:50:08.802Z,12780
2017-10-18T12:51:08.442Z,12328
2017-10-18T12:52:08.434Z,11464
2017-10-18T12:53:08.408Z,11028
2017-10-18T12:54:08.718Z,11296
2017-10-18T12:55:08.388Z,11760
2017-10-18T12:56:08.373Z,11956
2017-10-18T12:57:08.386Z,12344
2017-10-18T12:58:08.383Z,11700
2017-10-18T12:59:08.354Z,12104
2017-10-18T13:00:08.667Z,12168
2017-10-18T13:01:08.358Z,12020
2017-10-18T13:02:08.320Z,12584
2017-10-18T13:03:08.311Z,16224
2017-10-18T13:04:08.641Z,16672
2017-10-18T13:05:08.294Z,16768
2017-10-18T13:06:08.300Z,16768
2017-10-18T13:07:08.650Z,16384
2017-10-18T13:08:08.616Z,15456
2017-10-18T13:09:08.612Z,13040
2017-10-18T13:10:08.612Z,10796
2017-10-18T13:11:08.570Z,9148
2017-10-18T13:12:08.567Z,8696
2017-10-18T13:13:08.217Z,8736
2017-10-18T13:14:08.558Z,8680
2017-10-18T13:15:08.535Z,8584
2017-10-18T13:16:08.522Z,8556
2017-10-18T13:17:08.180Z,8508
2017-10-18T13:18:08.511Z,8496
2017-10-18T13:19:07.850Z,8464
2017-10-18T13:20:08.270Z,8456
2017-10-18T13:21:08.151Z,8452
2017-10-18T13:22:07.799Z,8464
2017-10-18T13:23:08.610Z,8472
2017-10-18T13:24:08.559Z,8392
2017-10-18T13:25:08.196Z,8372
2017-10-18T13:26:08.145Z,8400
2017-10-18T13:27:08.172Z,8416
2017-10-18T13:28:08.483Z,8356
2017-10-18T13:29:08.140Z,8340
2017-10-18T13:30:08.426Z,8360
2017-10-18T13:31:08.390Z,8384
2017-10-18T13:32:07.701Z,8380
2017-10-18T13:33:08.442Z,8408
2017-10-18T13:34:08.409Z,8452
2017-10-18T13:35:08.089Z,8436
2017-10-18T13:36:07.997Z,8396
2017-10-18T13:37:07.978Z,8284
2017-10-18T13:38:08.371Z,8200
2017-10-18T13:39:08.288Z,8188
2017-10-18T13:40:07.941Z,8200
2017-10-18T13:41:07.953Z,8164
2017-10-18T13:42:08.279Z,8160
2017-10-18T13:43:08.253Z,8156
2017-10-18T13:44:08.233Z,8156
2017-10-18T13:45:08.243Z,8104
2017-10-18T13:46:08.324Z,8072
2017-10-18T13:47:07.910Z,8072
2017-10-18T13:48:07.880Z,8028
2017-10-18T13:49:08.182Z,7960
2017-10-18T13:50:08.183Z,7980